createdAt,value
2022-09-27T00:00:24.467Z,73.00
2022-09-27T00:01:04.396Z,73.70
2022-09-27T00:01:36.278Z,74.10
2022-09-27T00:02:08.176Z,74.40
2022-09-27T00:02:40.312Z,73.40
2022-09-27T00:03:13.111Z,74.70
2022-09-27T00:03:44.969Z,73.50
2022-09-27T00:04:16.723Z,73.00
2022-09-27T00:04:48.851Z,73.60
2022-09-27T00:05:20.625Z,74.30
2022-09-27T00:06:05.451Z,73.60
2022-09-27T00:06:40.757Z,73.50
2022-09-27T00:07:12.903Z,73.60
2022-09-27T00:07:45.522Z,72.90
2022-09-27T00:08:17.271Z,73.70
2022-09-27T00:08:49.034Z,72.90
2022-09-27T00:09:20.893Z,74.30
2022-09-27T00:09:52.618Z,73.50
2022-09-27T00:10:24.965Z,73.40
2022-09-27T00:11:10.221Z,73.40
2022-09-27T00:12:14.555Z,72.80
2022-09-27T00:12:46.511Z,72.80
2022-09-27T00:13:18.255Z,73.90
2022-09-27T00:13:50.017Z,73.50
2022-09-27T00:14:21.942Z,73.30
2022-09-27T00:14:53.662Z,73.90
2022-09-27T00:15:25.532Z,74.20
2022-09-27T00:16:04.639Z,73.30
2022-09-27T00:16:38.743Z,73.20
2022-09-27T00:17:11.163Z,73.20
2022-09-27T00:17:43.285Z,73.40
2022-09-27T00:18:15.547Z,73.50
2022-09-27T00:18:47.309Z,74.00
2022-09-27T00:19:22.581Z,74.30
2022-09-27T00:19:56.190Z,73.30
2022-09-27T00:20:28.381Z,74.40
2022-09-27T00:21:12.253Z,73.50
2022-09-27T00:21:45.118Z,73.00
2022-09-27T00:22:16.881Z,74.30
2022-09-27T00:22:49.933Z,74.10
2022-09-27T00:23:21.746Z,74.40
2022-09-27T00:23:53.512Z,74.90
2022-09-27T00:24:25.224Z,73.50
2022-09-27T00:24:56.958Z,73.60
2022-09-27T00:25:28.899Z,73.40
2022-09-27T00:26:01.495Z,72.90
2022-09-27T00:26:33.414Z,74.20
2022-09-27T00:27:05.260Z,73.50
2022-09-27T00:27:37.201Z,72.90
2022-09-27T00:28:09.758Z,72.90
2022-09-27T00:28:41.906Z,74.30
2022-09-27T00:29:15.952Z,73.50
2022-09-27T00:29:48.352Z,73.50
2022-09-27T00:30:20.126Z,73.80
2022-09-27T00:30:52.227Z,73.20
2022-09-27T00:31:29.356Z,73.70
2022-09-27T00:32:01.673Z,73.70
2022-09-27T00:32:33.566Z,73.70
2022-09-27T00:33:05.426Z,73.90
2022-09-27T00:33:37.196Z,74.70
2022-09-27T00:34:19.193Z,73.80
2022-09-27T00:34:51.054Z,73.80
2022-09-27T00:35:22.794Z,73.20
2022-09-27T00:35:54.982Z,73.60
2022-09-27T00:36:29.242Z,74.60
2022-09-27T00:37:01.136Z,74.30
2022-09-27T00:37:33.364Z,74.50
2022-09-27T00:38:05.176Z,73.90
2022-09-27T00:38:36.942Z,73.20
2022-09-27T00:39:09.515Z,74.40
2022-09-27T00:39:41.818Z,73.80
2022-09-27T00:40:19.453Z,73.80
2022-09-27T00:40:51.711Z,73.80
2022-09-27T00:41:27.036Z,73.30
2022-09-27T00:41:58.915Z,73.70
2022-09-27T00:42:30.805Z,73.30
2022-09-27T00:43:02.622Z,74.00
2022-09-27T00:44:28.403Z,74.70
2022-09-27T00:45:06.950Z,73.80
2022-09-27T00:45:38.923Z,73.60
2022-09-27T00:46:13.602Z,74.10
2022-09-27T00:47:10.179Z,74.00
2022-09-27T00:47:52.652Z,73.80
2022-09-27T00:48:28.007Z,74.40
2022-09-27T00:49:07.070Z,73.90
2022-09-27T00:49:48.426Z,72.30
2022-09-27T00:50:28.050Z,73.80
2022-09-27T00:51:03.623Z,73.90
2022-09-27T00:51:38.562Z,74.90
2022-09-27T00:52:58.274Z,73.40
2022-09-27T00:53:51.627Z,73.80
2022-09-27T00:54:34.725Z,73.40
2022-09-27T00:55:17.257Z,71.80
2022-09-27T00:55:59.546Z,73.20
2022-09-27T00:56:33.344Z,73.80
2022-09-27T00:57:05.992Z,73.10
2022-09-27T00:57:38.559Z,74.30
2022-09-27T00:58:13.633Z,72.10
2022-09-27T00:58:52.717Z,74.30
2022-09-27T00:59:34.316Z,73.60
2022-09-27T01:00:10.035Z,73.20
2022-09-27T01:00:45.890Z,73.30
2022-09-27T01:01:17.850Z,73.00
2022-09-27T01:01:50.266Z,73.40
2022-09-27T01:02:22.356Z,71.50
2022-09-27T01:02:56.524Z,73.00
2022-09-27T01:03:58.573Z,73.50
2022-09-27T01:04:32.179Z,73.30
2022-09-27T01:05:07.223Z,71.70
2022-09-27T01:05:40.945Z,73.40
2022-09-27T01:06:14.053Z,72.90
2022-09-27T01:06:45.874Z,73.40
2022-09-27T01:07:17.771Z,73.40
2022-09-27T01:07:49.614Z,73.60
2022-09-27T01:08:21.346Z,73.00
2022-09-27T01:08:56.284Z,73.50
2022-09-27T01:09:29.167Z,73.40
2022-09-27T01:10:01.603Z,73.50
2022-09-27T01:10:49.796Z,74.30
2022-09-27T01:11:45.434Z,73.40
2022-09-27T01:12:42.389Z,73.00
2022-09-27T01:13:29.303Z,73.50
2022-09-27T01:14:18.592Z,72.90
2022-09-27T01:15:03.002Z,73.40
2022-09-27T01:15:53.441Z,73.40
2022-09-27T01:16:47.339Z,73.30
2022-09-27T01:17:30.938Z,73.30
2022-09-27T01:18:17.214Z,73.20
2022-09-27T01:19:09.337Z,73.10
2022-09-27T01:20:05.626Z,73.30
2022-09-27T01:21:11.622Z,73.20
2022-09-27T01:22:03.226Z,73.20
2022-09-27T01:22:52.907Z,73.30
2022-09-27T01:23:27.535Z,73.30
2022-09-27T01:24:31.926Z,73.10
2022-09-27T01:25:29.989Z,73.10
2022-09-27T01:26:29.498Z,73.20
2022-09-27T01:27:38.177Z,72.80
2022-09-27T01:28:47.114Z,73.10
2022-09-27T01:30:06.513Z,73.00
2022-09-27T01:30:39.557Z,73.20
2022-09-27T01:31:28.927Z,73.10
2022-09-27T01:32:15.604Z,72.70
2022-09-27T01:33:11.965Z,73.20
2022-09-27T01:33:43.730Z,73.00
2022-09-27T01:34:38.406Z,72.50
2022-09-27T01:35:29.102Z,72.60
2022-09-27T01:36:26.574Z,72.50
2022-09-27T01:36:58.573Z,73.20
2022-09-27T01:37:41.201Z,72.60
2022-09-27T01:38:21.368Z,72.60
2022-09-27T01:39:22.320Z,73.00
2022-09-27T01:40:39.133Z,72.50
2022-09-27T01:41:46.180Z,73.10
2022-09-27T01:42:29.728Z,74.10
2022-09-27T01:43:21.903Z,72.90
2022-09-27T01:44:13.902Z,73.00
2022-09-27T01:45:02.411Z,73.00
2022-09-27T01:45:54.446Z,72.90
2022-09-27T01:46:51.236Z,72.90
2022-09-27T01:47:46.554Z,73.90
2022-09-27T01:48:47.271Z,72.30
2022-09-27T01:49:35.499Z,72.20
2022-09-27T01:50:19.015Z,72.70
2022-09-27T01:51:10.473Z,72.30
2022-09-27T01:51:55.585Z,72.90
2022-09-27T01:52:41.415Z,72.80
2022-09-27T01:53:21.279Z,72.80
2022-09-27T01:54:17.564Z,72.20
2022-09-27T01:55:21.100Z,73.80
2022-09-27T01:56:23.157Z,72.80
2022-09-27T01:57:03.406Z,72.80
2022-09-27T01:57:46.991Z,72.30
2022-09-27T01:58:41.084Z,74.10
2022-09-27T01:59:19.949Z,73.20
2022-09-27T02:00:05.238Z,72.30
2022-09-27T02:00:51.043Z,73.10
2022-09-27T02:01:29.799Z,72.30
2022-09-27T02:02:08.240Z,72.80
2022-09-27T02:03:09.386Z,72.90
2022-09-27T02:03:47.466Z,72.20
2022-09-27T02:04:42.300Z,73.30
2022-09-27T02:05:37.919Z,73.10
2022-09-27T02:06:46.855Z,72.30
2022-09-27T02:07:43.033Z,73.40
2022-09-27T02:08:26.082Z,72.60
2022-09-27T02:09:30.900Z,72.80
2022-09-27T02:10:33.688Z,72.20
2022-09-27T02:11:13.562Z,72.70
2022-09-27T02:11:56.353Z,72.80
2022-09-27T02:12:35.815Z,72.20
2022-09-27T02:13:23.757Z,72.20
2022-09-27T02:14:17.473Z,72.50
2022-09-27T02:15:05.727Z,72.10
2022-09-27T02:16:07.733Z,72.40
2022-09-27T02:16:51.717Z,72.40
2022-09-27T02:17:55.488Z,71.90
2022-09-27T02:18:44.159Z,72.60
2022-09-27T02:19:33.544Z,71.70
2022-09-27T08:37:15.625Z,75.60
2022-09-27T08:43:31.164Z,75.60
2022-09-27T08:44:36.667Z,75.80
2022-09-27T09:07:44.022Z,75.90
2022-09-27T09:09:45.034Z,76.20
2022-09-27T09:16:17.392Z,76.10
2022-09-27T09:20:48.004Z,76.20
2022-09-27T09:22:55.237Z,76.40
2022-09-27T09:24:26.244Z,76.40
2022-09-27T09:25:22.375Z,76.30
2022-09-27T09:26:57.640Z,76.20
2022-09-27T09:30:49.263Z,76.40
2022-09-27T09:31:46.704Z,76.50
2022-09-27T09:36:04.212Z,76.00
2022-09-27T09:37:24.552Z,76.20
2022-09-27T09:40:25.348Z,76.40
2022-09-27T09:48:39.207Z,76.40
2022-09-27T09:53:42.603Z,76.30
2022-09-27T09:57:34.381Z,76.50
2022-09-27T10:02:37.224Z,76.20
2022-09-27T10:10:25.571Z,76.40
2022-09-27T10:11:00.842Z,76.40
2022-09-27T10:11:48.501Z,76.50
2022-09-27T10:12:29.314Z,76.70
2022-09-27T10:13:42.502Z,76.80
2022-09-27T10:14:51.846Z,77.00
2022-09-27T10:15:29.611Z,76.90
2022-09-27T10:16:10.293Z,77.40
2022-09-27T10:17:58.095Z,76.90
2022-09-27T10:19:39.761Z,76.60
2022-09-27T10:21:02.234Z,76.90
2022-09-27T10:24:12.293Z,76.50
2022-09-27T10:25:14.292Z,76.40
2022-09-27T10:26:10.291Z,76.40
2022-09-27T10:30:00.997Z,76.10
2022-09-27T10:30:35.374Z,76.20
2022-09-27T10:33:04.319Z,76.20
2022-09-27T10:34:42.155Z,76.10
2022-09-27T10:38:17.190Z,75.80
2022-09-27T10:42:54.348Z,75.40
2022-09-27T10:44:19.996Z,75.40
2022-09-27T10:44:55.929Z,75.30
2022-09-27T10:45:50.722Z,75.50
2022-09-27T10:47:32.754Z,75.60
2022-09-27T10:49:12.921Z,75.90
2022-09-27T10:49:45.640Z,76.10
2022-09-27T10:52:18.622Z,76.00
2022-09-27T10:53:05.685Z,75.90
2022-09-27T10:53:37.605Z,76.40
2022-09-27T10:55:25.897Z,75.80
2022-09-27T10:56:00.971Z,75.90
2022-09-27T10:56:35.433Z,75.90
2022-09-27T10:57:14.978Z,75.70
2022-09-27T10:59:01.435Z,75.30
2022-09-27T10:59:39.282Z,75.30
2022-09-27T11:00:24.164Z,75.30
2022-09-27T11:01:45.337Z,75.30
2022-09-27T11:03:16.584Z,75.50
2022-09-27T11:05:29.652Z,75.50
2022-09-27T11:09:56.128Z,75.50
2022-09-27T11:10:37.496Z,75.50
2022-09-27T11:11:26.236Z,75.40
2022-09-27T11:12:43.409Z,75.50
2022-09-27T11:14:22.174Z,75.40
2022-09-27T11:15:35.486Z,75.70
2022-09-27T11:16:41.808Z,75.70
2022-09-27T11:18:30.335Z,76.40
2022-09-27T11:20:09.279Z,76.30
2022-09-27T11:20:57.737Z,76.70
2022-09-27T11:21:53.743Z,76.60
2022-09-27T11:23:43.063Z,76.50
2022-09-27T11:24:30.791Z,76.50
2022-09-27T11:26:26.573Z,76.70
2022-09-27T11:27:01.412Z,77.10
2022-09-27T11:27:33.231Z,77.60
2022-09-27T11:28:27.433Z,76.80
2022-09-27T11:29:22.192Z,76.80
2022-09-27T11:30:21.220Z,76.90
2022-09-27T11:31:58.874Z,77.10
2022-09-27T11:32:51.629Z,77.30
2022-09-27T11:34:46.598Z,76.50
2022-09-27T11:35:35.589Z,77.00
2022-09-27T11:36:25.478Z,76.50
2022-09-27T11:37:41.438Z,76.50
2022-09-27T11:40:25.899Z,77.00
2022-09-27T11:41:16.257Z,76.40
2022-09-27T11:42:09.287Z,76.60
2022-09-27T11:43:08.672Z,76.70
2022-09-27T11:44:13.884Z,76.90
2022-09-27T11:45:45.404Z,77.40
2022-09-27T11:46:31.110Z,77.50
2022-09-27T11:47:22.220Z,77.40
2022-09-27T11:49:22.254Z,77.40
2022-09-27T11:50:18.656Z,77.60
2022-09-27T11:51:21.315Z,77.50
2022-09-27T11:52:39.715Z,77.00
2022-09-27T11:53:48.097Z,76.90
2022-09-27T11:54:46.029Z,77.30
2022-09-27T11:55:34.328Z,77.50
2022-09-27T11:56:37.249Z,77.50
2022-09-27T11:57:23.048Z,77.00
2022-09-27T11:58:16.538Z,77.00
2022-09-27T11:59:05.257Z,76.90
2022-09-27T12:00:10.446Z,76.90
2022-09-27T12:00:50.828Z,76.80
2022-09-27T12:01:35.901Z,77.00
2022-09-27T12:02:24.301Z,77.30
2022-09-27T12:03:11.671Z,76.90
2022-09-27T12:04:18.025Z,77.00
2022-09-27T12:05:20.473Z,77.40
2022-09-27T12:06:07.677Z,77.50
2022-09-27T12:06:55.437Z,77.20
2022-09-27T12:07:46.032Z,77.00
2022-09-27T12:08:54.974Z,77.00
2022-09-27T12:09:34.517Z,76.90
2022-09-27T12:10:50.769Z,76.40
2022-09-27T12:11:54.380Z,76.50
2022-09-27T12:12:34.340Z,76.60
2022-09-27T12:13:09.744Z,76.60
2022-09-27T12:14:45.315Z,76.80
2022-09-27T12:15:24.288Z,76.80
2022-09-27T12:15:57.516Z,76.70
2022-09-27T12:16:38.963Z,76.20
2022-09-27T12:17:42.089Z,76.10
2022-09-27T12:18:41.492Z,76.20
2022-09-27T12:19:38.958Z,76.30
2022-09-27T12:20:23.303Z,77.10
2022-09-27T12:21:33.232Z,76.70
2022-09-27T12:22:12.948Z,77.10
2022-09-27T12:22:59.967Z,76.90
2022-09-27T12:23:59.533Z,77.30
2022-09-27T12:24:39.564Z,76.80
2022-09-27T12:25:41.821Z,76.70
2022-09-27T12:26:35.223Z,77.00
2022-09-27T12:27:34.659Z,77.10
2022-09-27T12:28:25.887Z,77.10
2022-09-27T12:29:10.730Z,77.60
2022-09-27T12:29:45.189Z,77.60
2022-09-27T12:30:17.269Z,76.90
2022-09-27T12:31:17.404Z,76.60
2022-09-27T12:32:41.897Z,76.70
2022-09-27T12:33:32.722Z,76.50
2022-09-27T12:34:17.455Z,77.00
2022-09-27T12:35:11.633Z,77.10
2022-09-27T12:35:53.648Z,77.10
2022-09-27T12:36:37.384Z,76.50
2022-09-27T12:37:31.451Z,77.20
2022-09-27T12:38:15.437Z,77.20
2022-09-27T12:40:08.091Z,76.80
2022-09-27T12:40:48.002Z,76.80
2022-09-27T12:41:25.510Z,76.90
2022-09-27T12:42:28.978Z,76.90
2022-09-27T12:43:11.267Z,76.80
2022-09-27T12:44:02.106Z,77.30
2022-09-27T12:44:50.506Z,77.10
2022-09-27T12:45:43.240Z,77.20
2022-09-27T12:46:15.028Z,77.00
2022-09-27T12:47:13.078Z,76.90
2022-09-27T12:48:08.253Z,77.60
2022-09-27T12:49:04.814Z,77.60
2022-09-27T12:49:42.307Z,77.30
2022-09-27T12:50:20.389Z,77.20
2022-09-27T12:50:55.216Z,77.30
2022-09-27T12:51:46.734Z,77.20
2022-09-27T12:52:25.445Z,77.50
2022-09-27T12:53:19.922Z,77.90
2022-09-27T12:54:12.937Z,77.10
2022-09-27T12:54:45.751Z,77.10
2022-09-27T12:55:37.115Z,77.00
2022-09-27T12:56:43.754Z,77.00
2022-09-27T12:57:43.105Z,77.20
2022-09-27T12:58:31.022Z,77.60
2022-09-27T12:59:26.655Z,77.80
2022-09-27T13:00:19.678Z,77.50
2022-09-27T13:01:17.656Z,77.30
2022-09-27T13:01:49.669Z,77.00
2022-09-27T13:02:27.151Z,76.90
2022-09-27T13:03:30.984Z,77.40
2022-09-27T13:04:32.522Z,77.10
2022-09-27T13:05:53.382Z,77.60
2022-09-27T13:06:39.023Z,77.10
2022-09-27T13:07:34.087Z,77.50
2022-09-27T13:08:19.516Z,77.40
2022-09-27T13:08:57.222Z,77.80
2022-09-27T13:09:50.269Z,77.30
2022-09-27T13:10:47.493Z,77.90
2022-09-27T13:11:49.488Z,77.30
2022-09-27T13:12:27.080Z,77.50
2022-09-27T13:13:01.198Z,77.40
2022-09-27T13:13:36.742Z,76.90
2022-09-27T13:14:23.951Z,76.80
2022-09-27T13:15:22.797Z,77.30
2022-09-27T13:15:58.949Z,77.30
2022-09-27T13:16:44.303Z,76.80
2022-09-27T13:17:53.954Z,76.90
2022-09-27T13:19:02.706Z,76.90
2022-09-27T13:19:35.687Z,77.50
2022-09-27T13:20:35.370Z,77.60
2022-09-27T13:21:51.032Z,77.00
2022-09-27T13:22:51.771Z,77.10
2022-09-27T13:23:31.773Z,78.10
2022-09-27T13:24:39.248Z,77.10
2022-09-27T13:25:53.030Z,78.20
2022-09-27T13:26:45.019Z,77.40
2022-09-27T13:27:29.705Z,77.20
2022-09-27T13:28:29.229Z,77.60
2022-09-27T13:29:03.876Z,77.60
2022-09-27T13:29:43.306Z,78.60
2022-09-27T13:30:16.425Z,76.80
2022-09-27T13:30:50.526Z,76.90
2022-09-27T13:31:54.779Z,77.70
2022-09-27T13:32:36.460Z,77.50
2022-09-27T13:33:13.886Z,78.40
2022-09-27T13:34:03.675Z,76.90
2022-09-27T13:34:44.693Z,76.80
2022-09-27T13:35:25.801Z,76.80
2022-09-27T13:36:16.088Z,76.70
2022-09-27T13:36:49.414Z,77.10
2022-09-27T13:37:37.262Z,77.40
2022-09-27T13:38:24.330Z,76.80
2022-09-27T13:39:30.478Z,77.40
2022-09-27T13:40:38.598Z,77.10
2022-09-27T13:41:21.255Z,77.60
2022-09-27T13:42:29.979Z,77.90
2022-09-27T13:43:10.719Z,78.10
2022-09-27T13:44:22.802Z,78.20
2022-09-27T13:45:24.062Z,77.70
2022-09-27T13:46:00.974Z,77.40
2022-09-27T13:46:38.457Z,76.90
2022-09-27T13:47:31.792Z,77.40
2022-09-27T13:48:19.007Z,76.90
2022-09-27T13:49:21.356Z,77.30
2022-09-27T13:50:27.482Z,76.50
2022-09-27T13:51:16.162Z,76.70
2022-09-27T13:51:56.661Z,76.20
2022-09-27T13:52:37.467Z,77.20
2022-09-27T13:53:40.051Z,76.60
2022-09-27T13:54:39.762Z,76.10
2022-09-27T13:55:46.564Z,76.60
2022-09-27T13:56:46.686Z,76.50
2022-09-27T13:57:38.101Z,76.20
2022-09-27T13:58:19.501Z,76.40
2022-09-27T13:58:59.088Z,76.40
2022-09-27T13:59:59.837Z,75.80
2022-09-27T14:00:54.713Z,75.80
2022-09-27T14:01:35.732Z,75.50
2022-09-27T14:02:23.667Z,77.00
2022-09-27T14:03:04.861Z,76.10
2022-09-27T14:03:42.225Z,76.10
2022-09-27T14:04:24.198Z,75.50
2022-09-27T14:05:00.239Z,75.90
2022-09-27T14:05:41.373Z,75.50
2022-09-27T14:06:26.239Z,75.90
2022-09-27T14:07:03.814Z,75.60
2022-09-27T14:07:43.807Z,75.40
2022-09-27T14:08:39.889Z,75.80
2022-09-27T14:09:20.746Z,76.30
2022-09-27T14:10:02.016Z,75.30
2022-09-27T14:10:37.524Z,76.60
2022-09-27T14:11:18.643Z,75.40
2022-09-27T14:11:56.423Z,75.40
2022-09-27T14:12:33.846Z,75.30
2022-09-27T14:13:07.520Z,75.90
2022-09-27T14:13:49.509Z,76.00
2022-09-27T14:14:28.807Z,75.70
2022-09-27T14:15:07.019Z,75.70
2022-09-27T14:15:39.894Z,75.20
2022-09-27T14:16:16.507Z,75.70
2022-09-27T14:16:49.084Z,75.60
2022-09-27T14:17:22.872Z,75.80
2022-09-27T14:17:57.756Z,76.50
2022-09-27T14:18:30.978Z,75.70
2022-09-27T14:19:04.180Z,75.20
2022-09-27T14:19:44.637Z,75.20
2022-09-27T14:20:41.699Z,75.20
2022-09-27T14:21:33.258Z,75.50
2022-09-27T14:22:23.206Z,76.70
2022-09-27T14:22:57.946Z,75.20
2022-09-27T14:23:34.205Z,75.60
2022-09-27T14:24:27.039Z,75.20
2022-09-27T14:25:00.332Z,75.50
2022-09-27T14:25:44.373Z,75.20
2022-09-27T14:26:28.158Z,75.70
2022-09-27T14:27:19.234Z,75.20
2022-09-27T14:27:53.043Z,75.80
2022-09-27T14:28:51.253Z,75.30
2022-09-27T14:29:43.217Z,75.00
2022-09-27T14:30:22.513Z,75.50
2022-09-27T14:31:17.713Z,75.50
2022-09-27T14:32:09.286Z,75.50
2022-09-27T14:32:55.258Z,74.60
2022-09-27T14:33:40.409Z,76.00
2022-09-27T14:34:16.917Z,75.30
2022-09-27T14:35:30.775Z,76.30
2022-09-27T14:36:23.949Z,75.10
2022-09-27T14:37:17.047Z,74.70
2022-09-27T14:38:26.498Z,75.10
2022-09-27T14:38:58.827Z,75.90
2022-09-27T14:39:37.951Z,75.20
2022-09-27T14:40:44.608Z,74.80
2022-09-27T14:41:16.891Z,74.80
2022-09-27T14:41:48.814Z,75.60
2022-09-27T14:42:23.238Z,75.50
2022-09-27T14:42:58.619Z,74.40
2022-09-27T14:43:33.022Z,74.60
2022-09-27T14:44:04.988Z,75.00
2022-09-27T14:44:36.811Z,75.20
2022-09-27T14:45:36.501Z,74.50
2022-09-27T14:46:23.517Z,75.00
2022-09-27T14:47:26.221Z,75.00
2022-09-27T14:48:00.445Z,74.60
2022-09-27T14:48:37.299Z,74.10
2022-09-27T14:49:23.210Z,74.60
2022-09-27T14:50:13.263Z,74.20
2022-09-27T14:51:05.701Z,74.30
2022-09-27T14:51:39.513Z,74.70
2022-09-27T14:52:18.401Z,75.00
2022-09-27T14:52:55.362Z,74.90
2022-09-27T14:53:45.814Z,75.50
2022-09-27T14:54:27.313Z,74.40
2022-09-27T14:55:03.318Z,74.90
2022-09-27T14:55:35.984Z,74.60
2022-09-27T14:56:15.291Z,75.00
2022-09-27T14:56:51.327Z,75.50
2022-09-27T14:57:26.951Z,74.90
2022-09-27T14:58:02.825Z,74.70
2022-09-27T14:58:47.013Z,74.60
2022-09-27T14:59:30.814Z,74.20
2022-09-27T15:00:16.081Z,75.00
2022-09-27T15:00:49.358Z,74.20
2022-09-27T15:01:21.229Z,75.00
2022-09-27T15:01:54.229Z,74.70
2022-09-27T15:02:27.196Z,74.50
2022-09-27T15:03:03.178Z,74.00
2022-09-27T15:03:42.357Z,74.60
2022-09-27T15:04:17.111Z,74.10
2022-09-27T15:04:51.336Z,74.20
2022-09-27T15:05:27.470Z,74.10
2022-09-27T15:05:59.853Z,74.70
2022-09-27T15:06:32.359Z,74.70
2022-09-27T15:07:05.063Z,74.60
2022-09-27T15:07:37.138Z,74.20
2022-09-27T15:08:13.010Z,75.00
2022-09-27T15:08:49.188Z,74.10
2022-09-27T15:09:22.827Z,74.00
2022-09-27T15:09:55.218Z,75.20
2022-09-27T15:10:32.819Z,74.50
2022-09-27T15:11:07.450Z,74.40
2022-09-27T15:11:41.425Z,74.50
2022-09-27T15:12:25.648Z,74.50
2022-09-27T15:13:01.367Z,74.40
2022-09-27T15:13:37.386Z,74.40
2022-09-27T15:14:32.916Z,74.90
2022-09-27T15:15:06.798Z,74.00
2022-09-27T15:15:39.878Z,76.70
2022-09-27T15:16:21.618Z,74.60
2022-09-27T15:16:54.266Z,73.90
2022-09-27T15:17:26.050Z,74.00
2022-09-27T15:17:59.367Z,74.60
2022-09-27T15:18:31.700Z,74.20
2022-09-27T15:19:17.916Z,75.00
2022-09-27T15:20:18.531Z,74.60
2022-09-27T15:20:54.283Z,74.50
2022-09-27T15:21:37.699Z,74.20
2022-09-27T15:22:35.746Z,75.10
2022-09-27T15:23:25.899Z,73.90
2022-09-27T15:23:59.227Z,73.90
2022-09-27T15:24:45.063Z,74.50
2022-09-27T15:25:19.805Z,74.40
2022-09-27T15:26:07.016Z,74.40
2022-09-27T15:26:47.023Z,74.40
2022-09-27T15:27:22.303Z,74.00
2022-09-27T15:27:55.955Z,75.40
2022-09-27T15:28:27.958Z,74.00
2022-09-27T15:28:59.770Z,74.70
2022-09-27T15:29:32.122Z,75.00
2022-09-27T15:30:05.569Z,74.60
2022-09-27T15:30:43.539Z,74.60
2022-09-27T15:31:16.324Z,74.60
2022-09-27T15:32:06.558Z,73.70
2022-09-27T15:32:38.414Z,74.50
2022-09-27T15:33:21.614Z,74.70
2022-09-27T15:33:56.002Z,74.70
2022-09-27T15:34:29.895Z,74.60
2022-09-27T15:35:08.714Z,74.70
2022-09-27T15:35:49.788Z,74.90
2022-09-27T15:36:47.366Z,74.80
2022-09-27T15:37:35.434Z,74.70
2022-09-27T15:38:16.888Z,74.70
2022-09-27T15:39:10.124Z,74.20
2022-09-27T15:39:42.241Z,74.30
2022-09-27T15:40:19.632Z,75.00
2022-09-27T15:40:51.453Z,74.70
2022-09-27T15:41:23.308Z,75.80
2022-09-27T15:42:08.841Z,74.30
2022-09-27T15:42:57.190Z,74.80
2022-09-27T15:43:39.983Z,74.90
2022-09-27T15:44:45.102Z,74.30
2022-09-27T15:45:35.713Z,74.40
2022-09-27T15:46:41.026Z,74.30
2022-09-27T15:47:42.641Z,74.70
2022-09-27T15:48:17.175Z,75.60
2022-09-27T15:49:19.315Z,74.60
2022-09-27T15:49:51.446Z,74.70
2022-09-27T15:50:25.915Z,74.30
2022-09-27T15:50:58.482Z,74.30
2022-09-27T15:51:44.418Z,74.80
2022-09-27T15:52:47.301Z,74.80
2022-09-27T15:53:37.291Z,74.80
2022-09-27T15:54:09.010Z,75.00
2022-09-27T15:54:40.722Z,74.90
2022-09-27T15:55:14.096Z,74.90
2022-09-27T15:55:45.839Z,74.70
2022-09-27T15:56:18.175Z,74.80
2022-09-27T15:56:55.260Z,75.50
2022-09-27T15:57:29.037Z,73.80
2022-09-27T15:58:08.320Z,74.70
2022-09-27T15:58:40.527Z,74.20
2022-09-27T15:59:22.900Z,74.90
2022-09-27T15:59:54.698Z,75.00
2022-09-27T16:00:27.775Z,75.10
2022-09-27T16:01:03.411Z,74.60
2022-09-27T16:01:35.248Z,75.40
2022-09-27T16:02:16.114Z,74.60
2022-09-27T16:02:48.030Z,74.50
2022-09-27T16:03:20.211Z,74.60
2022-09-27T16:03:51.984Z,74.60
2022-09-27T16:04:24.035Z,74.70
2022-09-27T16:04:55.808Z,73.90
2022-09-27T16:05:29.664Z,73.70
2022-09-27T16:06:03.375Z,74.30
2022-09-27T16:06:35.234Z,74.40
2022-09-27T16:07:09.838Z,74.30
2022-09-27T16:07:42.108Z,72.80
2022-09-27T16:08:14.323Z,73.00
2022-09-27T16:08:46.993Z,73.90
2022-09-27T16:09:20.779Z,74.10
2022-09-27T16:09:55.383Z,73.60
2022-09-27T16:10:37.489Z,75.10
2022-09-27T16:11:14.150Z,74.20
2022-09-27T16:11:47.527Z,74.30
2022-09-27T16:12:19.236Z,73.70
2022-09-27T16:12:54.094Z,75.70
2022-09-27T16:13:32.353Z,74.20
2022-09-27T16:14:04.667Z,73.60
2022-09-27T16:14:36.353Z,74.30
2022-09-27T16:15:08.454Z,74.90
2022-09-27T16:15:41.054Z,73.90
2022-09-27T16:16:16.469Z,73.30
2022-09-27T16:17:03.502Z,73.20
2022-09-27T16:17:37.782Z,73.70
2022-09-27T16:18:10.514Z,73.80
2022-09-27T16:18:43.422Z,73.80
2022-09-27T16:19:15.412Z,74.00
2022-09-27T16:19:47.395Z,75.00
2022-09-27T16:20:24.968Z,73.90
2022-09-27T16:20:58.299Z,76.40
2022-09-27T16:21:30.118Z,74.00
2022-09-27T16:22:03.528Z,73.60
2022-09-27T16:22:35.375Z,73.90
2022-09-27T16:23:07.277Z,73.90
2022-09-27T16:23:39.052Z,73.40
2022-09-27T16:24:11.464Z,73.30
2022-09-27T16:24:43.218Z,73.90
2022-09-27T16:25:15.131Z,73.30
2022-09-27T16:25:46.869Z,74.00
2022-09-27T16:26:19.692Z,73.90
2022-09-27T16:26:51.398Z,75.10
2022-09-27T16:27:27.350Z,73.40
2022-09-27T16:28:01.002Z,73.30
2022-09-27T16:28:33.767Z,73.20
2022-09-27T16:29:10.933Z,73.70
2022-09-27T16:29:44.430Z,73.80
2022-09-27T16:30:17.531Z,74.00
2022-09-27T16:30:49.264Z,73.80
2022-09-27T16:31:21.235Z,73.20
2022-09-27T16:31:53.915Z,71.60
2022-09-27T16:32:25.636Z,73.20
2022-09-27T16:32:58.748Z,73.70
2022-09-27T16:33:32.650Z,74.30
2022-09-27T16:34:04.397Z,73.70
2022-09-27T16:34:36.191Z,73.80
2022-09-27T16:35:08.926Z,73.00
2022-09-27T16:35:43.466Z,73.60
2022-09-27T16:36:19.236Z,73.00
2022-09-27T16:36:51.034Z,73.50
2022-09-27T16:37:23.478Z,74.00
2022-09-27T16:37:55.261Z,73.60
2022-09-27T16:38:30.121Z,72.80
2022-09-27T16:39:04.959Z,73.20
2022-09-27T16:39:36.902Z,74.20
2022-09-27T16:40:10.398Z,73.80
2022-09-27T16:40:42.170Z,73.40
2022-09-27T16:41:14.001Z,73.00
2022-09-27T16:41:47.806Z,72.80
2022-09-27T16:42:19.596Z,74.50
2022-09-27T16:42:52.388Z,73.50
2022-09-27T16:43:27.311Z,72.90
2022-09-27T16:44:00.016Z,73.40
2022-09-27T16:44:36.041Z,72.90
2022-09-27T16:45:11.208Z,73.20
2022-09-27T16:45:43.695Z,73.50
2022-09-27T16:46:18.895Z,73.30
2022-09-27T16:46:51.237Z,73.90
2022-09-27T16:47:23.427Z,73.50
2022-09-27T16:47:55.155Z,72.90
2022-09-27T16:48:26.855Z,74.30
2022-09-27T16:48:58.578Z,72.80
2022-09-27T16:49:49.367Z,74.40
2022-09-27T16:50:40.113Z,73.40
2022-09-27T16:51:34.391Z,73.10
2022-09-27T16:52:06.286Z,73.30
2022-09-27T16:52:38.414Z,72.30
2022-09-27T16:53:10.342Z,73.10
2022-09-27T16:53:42.205Z,72.80
2022-09-27T16:54:15.816Z,73.40
2022-09-27T16:54:47.747Z,73.70
2022-09-27T16:55:20.964Z,72.80
2022-09-27T16:55:52.776Z,73.40
2022-09-27T16:56:24.887Z,72.60
2022-09-27T16:56:58.262Z,72.60
2022-09-27T16:57:30.162Z,73.00
2022-09-27T16:58:05.249Z,73.10
2022-09-27T16:58:37.000Z,72.20
2022-09-27T16:59:08.774Z,72.80
2022-09-27T16:59:40.594Z,73.10
2022-09-27T17:00:13.011Z,72.80
2022-09-27T17:00:45.365Z,72.70
2022-09-27T17:01:17.227Z,72.60
2022-09-27T17:01:49.396Z,72.60
2022-09-27T17:02:21.187Z,72.60
2022-09-27T17:02:53.803Z,72.60
2022-09-27T17:03:25.678Z,71.90
2022-09-27T17:03:57.803Z,71.80
2022-09-27T17:04:29.723Z,72.30
2022-09-27T17:05:02.218Z,71.80
2022-09-27T17:05:33.943Z,73.20
2022-09-27T17:06:05.849Z,71.70
2022-09-27T17:06:38.131Z,72.30
2022-09-27T17:07:09.873Z,72.30
2022-09-27T17:07:42.435Z,72.50
2022-09-27T17:08:14.168Z,72.40
2022-09-27T17:08:46.943Z,72.70
2022-09-27T17:09:18.664Z,72.30
2022-09-27T17:09:50.461Z,73.60
2022-09-27T17:10:23.571Z,73.00
2022-09-27T17:10:56.873Z,71.60
2022-09-27T17:11:29.931Z,72.50
2022-09-27T17:12:01.870Z,72.90
2022-09-27T17:12:34.278Z,71.40
2022-09-27T17:13:07.136Z,72.40
2022-09-27T17:13:38.847Z,71.70
2022-09-27T17:14:17.294Z,72.20
2022-09-27T17:14:49.244Z,72.50
2022-09-27T17:15:22.233Z,72.30
2022-09-27T17:15:54.306Z,72.60
2022-09-27T17:16:28.155Z,72.30
2022-09-27T17:16:59.946Z,72.40
2022-09-27T17:17:31.732Z,74.10
2022-09-27T17:18:03.563Z,72.50
2022-09-27T17:18:35.318Z,72.10
2022-09-27T17:19:07.097Z,72.20
2022-09-27T17:19:39.118Z,72.30
2022-09-27T17:20:11.284Z,71.70
2022-09-27T17:20:43.777Z,72.30
2022-09-27T17:21:15.883Z,71.60
2022-09-27T17:21:47.701Z,72.50
2022-09-27T17:22:19.433Z,72.10
2022-09-27T17:22:51.227Z,72.10
2022-09-27T17:23:23.014Z,73.60
2022-09-27T17:23:54.770Z,72.20
2022-09-27T17:24:26.912Z,71.70
2022-09-27T17:24:58.666Z,73.10
2022-09-27T17:25:30.376Z,72.90